Time;durP1;ratioP1;P1;durP2;ratioP2;P2;SDS_P1;SDS_P2;PMS_P1;PMS_P2;Temp;Humidity;BMP_temperature;BMP_pressure;BME280_temperature;BME280_humidity;BME280_pressure;Samples;Min_cycle;Max_cycle;Signal;HPM_P1;HPM_P2
2023/11/12 00:01:55;;;;;;;3.72;3.00;;;;;;;5.43;79.77;95941.22;5078841;28;20494;-81
2023/11/12 00:04:22;;;;;;;3.33;3.03;;;;;;;5.42;78.59;95942.16;5079358;28;20044;-80
2023/11/12 00:06:50;;;;;;;2.20;2.00;;;;;;;5.35;77.89;95942.81;5078747;28;20094;-81
2023/11/12 00:09:18;;;;;;;2.53;2.33;;;;;;;5.32;77.79;95935.41;5078499;28;20149;-81
2023/11/12 00:11:46;;;;;;;6.15;2.70;;;;;;;5.31;77.60;95935.56;5078032;28;20390;-81
2023/11/12 00:14:15;;;;;;;2.83;2.25;;;;;;;5.30;77.72;95936.56;5078006;28;20040;-80
2023/11/12 00:16:43;;;;;;;3.10;2.25;;;;;;;5.30;77.42;95933.97;5077910;28;20060;-81
2023/11/12 00:19:11;;;;;;;3.50;2.88;;;;;;;5.31;78.38;95933.81;5078235;28;20059;-80
2023/11/12 00:21:38;;;;;;;8.07;4.53;;;;;;;5.28;77.50;95926.38;5078116;28;20501;-81
2023/11/12 00:24:07;;;;;;;6.90;4.50;;;;;;;5.26;76.91;95928.31;5078147;28;20398;-81
2023/11/12 00:26:35;;;;;;;12.68;6.63;;;;;;;5.28;78.92;95921.19;5077903;28;20055;-80
2023/11/12 00:29:02;;;;;;;9.25;5.05;;;;;;;5.33;81.03;95923.28;5077420;28;20044;-81
2023/11/12 00:31:31;;;;;;;6.97;4.82;;;;;;;5.39;82.42;95919.22;5078060;28;20072;-81
2023/11/12 00:33:59;;;;;;;8.10;4.43;;;;;;;5.42;81.44;95916.31;5078523;28;20055;-80
2023/11/12 00:36:27;;;;;;;7.47;4.45;;;;;;;5.37;79.45;95904.66;5078063;28;20080;-81
2023/11/12 00:38:55;;;;;;;8.52;4.47;;;;;;;5.36;79.24;95897.91;5078586;28;20055;-81
2023/11/12 00:41:23;;;;;;;8.23;5.43;;;;;;;5.33;78.68;95892.25;5079369;28;20071;-80
2023/11/12 00:43:51;;;;;;;5.30;4.32;;;;;;;5.23;78.27;95887.28;5078609;28;20113;-81
2023/11/12 00:46:19;;;;;;;4.85;3.97;;;;;;;5.18;78.30;95886.94;5078359;28;20182;-82
2023/11/12 00:48:48;;;;;;;4.20;3.33;;;;;;;5.07;77.34;95892.47;5077552;28;20049;-81
2023/11/12 00:51:16;;;;;;;5.43;3.63;;;;;;;4.98;76.84;95885.69;5076891;28;20049;-80
2023/11/12 00:53:45;;;;;;;3.83;3.33;;;;;;;4.93;77.70;95881.03;5076750;28;20403;-81
2023/11/12 00:56:12;;;;;;;7.07;3.60;;;;;;;4.90;77.51;95881.38;5076231;28;20143;-81
2023/11/12 00:58:40;;;;;;;4.97;4.03;;;;;;;4.88;78.32;95878.94;5077044;28;20064;-81
2023/11/12 01:01:07;;;;;;;6.93;4.00;;;;;;;4.86;78.30;95875.72;5077017;28;20059;-81
2023/11/12 01:03:35;;;;;;;4.43;3.58;;;;;;;4.85;77.99;95874.09;5077145;28;20048;-80
2023/11/12 01:06:05;;;;;;;4.05;3.10;;;;;;;4.82;77.94;95874.41;5076799;28;20052;-81
2023/11/12 01:08:32;;;;;;;5.47;3.47;;;;;;;4.83;78.67;95876.06;5077023;28;20083;-81
2023/11/12 01:11:00;;;;;;;4.70;3.63;;;;;;;4.80;79.54;95881.53;5076037;28;20135;-81
2023/11/12 01:13:28;;;;;;;5.15;3.38;;;;;;;4.72;79.41;95878.94;5076149;28;20559;-81
2023/11/12 01:15:56;;;;;;;4.47;3.05;;;;;;;4.69;80.23;95874.13;5075678;28;20048;-80
2023/11/12 01:18:23;;;;;;;4.57;3.20;;;;;;;4.63;79.04;95867.81;5076049;28;20048;-80
2023/11/12 01:20:51;;;;;;;3.90;2.90;;;;;;;4.63;78.73;95867.00;5076166;28;20056;-81
2023/11/12 01:23:20;;;;;;;4.75;3.22;;;;;;;4.57;78.35;95871.06;5075624;28;20501;-81
2023/11/12 01:25:48;;;;;;;3.80;3.00;;;;;;;4.49;78.02;95858.94;5075077;28;20053;-81
2023/11/12 01:28:15;;;;;;;4.40;2.60;;;;;;;4.43;77.65;95849.25;5075293;28;20430;-80
2023/11/12 01:30:43;;;;;;;3.10;2.80;;;;;;;4.37;77.48;95847.31;5075255;28;20059;-81
2023/11/12 01:33:11;;;;;;;3.60;2.33;;;;;;;4.33;77.14;95851.22;5075373;28;20137;-81
2023/11/12 01:35:39;;;;;;;4.60;2.58;;;;;;;4.31;77.14;95850.56;5076211;28;20082;-81
2023/11/12 01:38:07;;;;;;;2.78;2.40;;;;;;;4.32;77.92;95857.31;5074766;28;20138;-81
2023/11/12 01:40:39;;;;;;;2.95;2.65;;;;;;;4.28;80.00;95861.19;5075516;28;20530;-81
2023/11/12 01:43:08;;;;;;;;;;;;;;;4.24;80.04;95852.16;5076005;28;20083;-81
2023/11/12 01:45:35;;;;;;;3.88;2.47;;;;;;;4.11;78.17;95845.72;5075303;28;19974;-81
2023/11/12 01:48:05;;;;;;;4.13;2.42;;;;;;;4.02;77.61;95853.59;5074377;28;20473;-81
2023/11/12 01:50:33;;;;;;;5.63;2.17;;;;;;;3.96;77.22;95843.88;5074335;28;20048;-81
2023/11/12 01:53:01;;;;;;;3.80;2.40;;;;;;;3.95;79.01;95850.84;5073798;28;20517;-80
2023/11/12 01:55:32;;;;;;;4.15;2.58;;;;;;;3.99;80.09;95852.13;5093664;28;20120;-80
2023/11/12 01:58:04;;;;;;;2.77;2.13;;;;;;;3.98;80.11;95855.69;5094211;28;20106;-80
2023/11/12 02:00:33;;;;;;;3.67;2.63;;;;;;;3.96;79.14;95849.06;5093449;28;20253;-81
2023/11/12 02:03:03;;;;;;;2.60;2.00;;;;;;;3.96;79.14;95849.06;5075075;28;20044;-80
2023/11/12 02:05:31;;;;;;;2.42;2.22;;;;;;;3.92;78.56;95839.06;5074151;28;20060;-81
2023/11/12 02:08:00;;;;;;;3.08;2.42;;;;;;;3.88;77.97;95845.50;5073540;28;20131;-81
2023/11/12 02:10:35;;;;;;;2.92;2.65;;;;;;;3.87;77.40;95849.06;5073547;28;20054;-81
2023/11/12 02:13:05;;;;;;;5.88;2.80;;;;;;;3.89;79.02;95851.47;5073166;28;20045;-81
2023/11/12 02:15:32;;;;;;;3.75;3.05;;;;;;;3.90;78.66;95853.09;5073485;28;20064;-81
2023/11/12 02:18:00;;;;;;;4.13;2.90;;;;;;;3.90;77.81;95846.16;5074021;28;20445;-80
2023/11/12 02:20:28;;;;;;;4.82;3.17;;;;;;;3.90;77.98;95850.50;5073768;28;20060;-81
2023/11/12 02:22:56;;;;;;;4.10;2.80;;;;;;;3.88;77.72;95847.28;5074897;28;20041;-81
2023/11/12 02:25:25;;;;;;;2.55;2.30;;;;;;;3.82;77.51;95850.50;5078864;28;20055;-82
2023/11/12 02:27:52;;;;;;;9.13;4.45;;;;;;;3.82;78.10;95847.91;5092294;28;20054;-80
2023/11/12 02:30:20;;;;;;;3.17;2.60;;;;;;;3.82;77.86;95840.97;5092625;28;20512;-81
2023/11/12 02:32:48;;;;;;;2.90;2.67;;;;;;;3.84;78.93;95844.19;5093638;28;20498;-81
2023/11/12 02:35:16;;;;;;;4.70;2.50;;;;;;;3.82;78.90;95850.50;5108430;28;20044;-82
2023/11/12 02:37:44;;;;;;;2.80;2.40;;;;;;;3.80;77.59;95852.41;5116819;28;20040;-79
2023/11/12 02:40:14;;;;;;;3.75;2.88;;;;;;;3.77;78.19;95848.38;5116647;28;20032;-80
2023/11/12 02:42:43;;;;;;;4.20;2.63;;;;;;;3.76;77.86;95853.69;5101778;28;20055;-81
2023/11/12 02:45:11;;;;;;;4.72;2.45;;;;;;;3.71;77.68;95852.38;5096401;28;20079;-80
2023/11/12 02:47:39;;;;;;;3.63;2.40;;;;;;;3.72;78.87;95846.28;5095057;28;20433;-81
2023/11/12 02:50:24;;;;;;;3.63;1.92;;;;;;;3.71;77.27;95842.06;5094926;28;20048;-81
2023/11/12 02:52:52;;;;;;;2.15;1.88;;;;;;;3.67;77.35;95838.22;5093716;28;20046;-81
2023/11/12 02:55:19;;;;;;;3.90;2.35;;;;;;;3.65;77.27;95842.72;5094057;28;20076;-81
2023/11/12 02:57:48;;;;;;;3.80;2.50;;;;;;;3.66;77.52;95846.09;5093152;28;22269;-80
2023/11/12 03:00:17;;;;;;;3.90;2.97;;;;;;;3.63;77.94;95842.06;5093627;28;20052;-81
2023/11/12 03:02:46;;;;;;;3.38;2.17;;;;;;;3.65;77.11;95841.88;5092867;28;20052;-81
2023/11/12 03:05:14;;;;;;;2.17;1.88;;;;;;;3.61;76.43;95833.69;5092992;28;20044;-83
2023/11/12 03:07:42;;;;;;;2.80;2.28;;;;;;;3.61;76.42;95830.31;5092865;28;20135;-81
2023/11/12 03:10:10;;;;;;;3.65;2.55;;;;;;;3.63;76.28;95824.00;5093115;28;20063;-81
2023/11/12 03:12:39;;;;;;;3.35;2.45;;;;;;;3.64;76.58;95817.88;5093417;28;20108;-81
2023/11/12 03:15:09;;;;;;;3.20;2.65;;;;;;;3.63;77.50;95813.69;5093358;28;20176;-81
2023/11/12 03:17:37;;;;;;;3.42;2.88;;;;;;;3.64;76.68;95812.72;5092627;28;20464;-81
2023/11/12 03:20:08;;;;;;;3.75;2.70;;;;;;;3.64;76.61;95801.59;5093002;28;20040;-82
2023/11/12 03:22:36;;;;;;;3.45;3.10;;;;;;;3.69;78.15;95799.34;5092806;28;20498;-80
2023/11/12 03:25:05;;;;;;;4.93;3.85;;;;;;;3.74;80.32;95796.28;5093183;28;20446;-81
2023/11/12 03:27:34;;;;;;;3.92;3.17;;;;;;;3.77;80.72;95801.16;5092586;28;20133;-81
2023/11/12 03:30:04;;;;;;;2.83;2.53;;;;;;;3.75;79.37;95793.56;5093216;28;20098;-81
2023/11/12 03:32:33;;;;;;;3.28;2.92;;;;;;;3.76;78.82;95784.03;5093317;28;20082;-80
2023/11/12 03:35:00;;;;;;;5.03;3.70;;;;;;;3.76;78.61;95778.88;5094528;28;20070;-81
2023/11/12 03:37:28;;;;;;;3.50;2.92;;;;;;;3.70;77.33;95772.59;5096352;28;20052;-80
2023/11/12 03:39:56;;;;;;;3.60;2.80;;;;;;;3.61;76.87;95766.63;5096469;28;20561;-81
2023/11/12 03:42:24;;;;;;;4.50;3.33;;;;;;;3.57;77.62;95769.69;5097069;28;20060;-82
2023/11/12 03:44:52;;;;;;;3.40;3.10;;;;;;;3.53;77.07;95763.22;5096083;28;20535;-80
2023/11/12 03:47:19;;;;;;;4.22;3.13;;;;;;;3.46;76.66;95765.63;5096379;28;20059;-81
2023/11/12 03:49:48;;;;;;;4.35;3.20;;;;;;;3.42;76.75;95767.72;5096114;28;20056;-81
2023/11/12 03:52:16;;;;;;;7.47;2.92;;;;;;;3.41;76.74;95763.53;5095679;28;22124;-81
2023/11/12 03:54:43;;;;;;;3.53;2.92;;;;;;;3.34;76.38;95759.16;5095714;28;20135;-82
2023/11/12 03:57:11;;;;;;;3.78;3.10;;;;;;;3.27;77.14;95758.97;5095523;28;20090;-81
2023/11/12 03:59:39;;;;;;;3.50;2.92;;;;;;;3.25;77.41;95753.16;5095764;28;20056;-81
2023/11/12 04:02:06;;;;;;;3.40;3.10;;;;;;;3.21;77.18;95744.94;5096278;28;20139;-80
2023/11/12 04:04:34;;;;;;;2.42;2.22;;;;;;;3.20;77.04;95751.06;5095813;28;20089;-80
2023/11/12 04:07:04;;;;;;;4.10;2.58;;;;;;;3.18;76.52;95750.41;5095242;28;20051;-80
2023/11/12 04:09:31;;;;;;;3.47;2.60;;;;;;;3.18;76.54;95747.03;5095338;28;20060;-81
2023/11/12 04:11:59;;;;;;;2.97;2.55;;;;;;;3.19;77.13;95741.72;5094844;28;20055;-81
2023/11/12 04:14:27;;;;;;;3.92;3.38;;;;;;;3.19;76.36;95733.16;5095268;28;20044;-80
2023/11/12 04:16:54;;;;;;;3.97;3.40;;;;;;;3.15;76.27;95732.69;5094949;28;20048;-80
2023/11/12 04:19:22;;;;;;;3.75;3.03;;;;;;;3.12;75.88;95732.97;5095836;28;20055;-80
2023/11/12 04:21:50;;;;;;;4.90;3.53;;;;;;;3.12;76.40;95740.72;5095417;28;20146;-81
2023/11/12 04:24:19;;;;;;;3.55;3.25;;;;;;;3.00;76.11;95741.97;5095498;28;20047;-80
2023/11/12 04:26:47;;;;;;;5.38;3.83;;;;;;;2.99;77.92;95735.19;5095244;28;20048;-81
2023/11/12 04:29:14;;;;;;;3.85;3.13;;;;;;;2.98;78.58;95734.41;5095067;28;20075;-80
2023/11/12 04:31:42;;;;;;;4.15;3.38;;;;;;;2.95;77.06;95733.88;5094738;28;20055;-82
2023/11/12 04:34:10;;;;;;;5.50;2.65;;;;;;;2.89;76.54;95728.41;5094533;28;20094;-81
2023/11/12 04:36:38;;;;;;;4.43;3.38;;;;;;;2.87;77.53;95724.38;5094219;28;20048;-82
2023/11/12 04:39:07;;;;;;;7.03;3.65;;;;;;;2.87;77.53;95725.19;5094511;28;20055;-81
2023/11/12 04:41:36;;;;;;;3.33;2.80;;;;;;;2.84;77.11;95719.53;5115625;28;20044;-79
2023/11/12 04:44:05;;;;;;;5.18;3.15;;;;;;;2.78;76.90;95720.97;5118927;28;20052;-79
2023/11/12 04:46:33;;;;;;;4.93;3.08;;;;;;;2.72;77.34;95719.00;5114826;28;20050;-79
2023/11/12 04:49:01;;;;;;;3.72;3.33;;;;;;;2.70;77.47;95714.97;5107890;28;20044;-81
2023/11/12 04:51:30;;;;;;;3.83;3.13;;;;;;;2.67;77.15;95716.09;5095848;28;20052;-80
2023/11/12 04:53:58;;;;;;;3.17;2.80;;;;;;;2.63;77.05;95713.00;5095033;28;20066;-81
2023/11/12 04:56:25;;;;;;;5.05;3.42;;;;;;;2.58;77.31;95710.09;5094202;28;20074;-81
2023/11/12 04:58:54;;;;;;;5.18;3.33;;;;;;;2.55;77.32;95712.16;5094020;28;20043;-81
2023/11/12 05:01:22;;;;;;;5.40;3.85;;;;;;;2.48;77.16;95707.63;5094255;28;20139;-81
2023/11/12 05:03:49;;;;;;;6.68;3.97;;;;;;;2.45;77.66;95707.94;5093731;28;20130;-80
2023/11/12 05:06:17;;;;;;;9.65;5.88;;;;;;;2.43;77.58;95711.63;5093657;28;20493;-80
2023/11/12 05:08:45;;;;;;;10.43;6.50;;;;;;;2.37;77.86;95707.88;5093952;28;20093;-80
2023/11/12 05:11:12;;;;;;;10.95;5.63;;;;;;;2.37;78.11;95712.25;5093762;28;20126;-81
2023/11/12 05:13:40;;;;;;;6.00;4.18;;;;;;;2.36;77.96;95702.88;5093765;28;20432;-81
2023/11/12 05:16:09;;;;;;;6.68;4.72;;;;;;;2.35;77.95;95706.44;5093482;28;20087;-81
2023/11/12 05:18:36;;;;;;;5.72;4.88;;;;;;;2.35;78.89;95706.44;5093553;28;20044;-81
2023/11/12 05:21:06;;;;;;;5.43;4.40;;;;;;;2.37;79.05;95699.38;5093971;28;20428;-81
2023/11/12 05:23:34;;;;;;;4.68;4.15;;;;;;;2.35;79.11;95699.50;5093663;28;20050;-81
2023/11/12 05:26:01;;;;;;;6.15;4.22;;;;;;;2.33;79.32;95705.78;5093099;28;20087;-81
2023/11/12 05:28:29;;;;;;;4.95;4.45;;;;;;;2.28;79.15;95706.22;5093598;28;20201;-81
2023/11/12 05:30:57;;;;;;;5.28;4.40;;;;;;;2.25;79.75;95701.38;5093271;28;20519;-81
2023/11/12 05:33:26;;;;;;;5.25;4.60;;;;;;;2.24;79.48;95699.78;5093474;28;20077;-80
2023/11/12 05:35:53;;;;;;;7.72;5.10;;;;;;;2.25;79.80;95697.06;5093071;28;20048;-80
2023/11/12 05:38:21;;;;;;;6.07;4.88;;;;;;;2.29;81.18;95702.69;5093065;28;20048;-80
2023/11/12 05:40:49;;;;;;;4.97;4.25;;;;;;;2.32;80.56;95712.69;5093069;28;20419;-80
2023/11/12 05:43:16;;;;;;;5.97;4.40;;;;;;;2.30;80.52;95708.66;5092965;28;20519;-80
2023/11/12 05:45:44;;;;;;;5.43;4.90;;;;;;;2.30;80.87;95696.59;5093111;28;20424;-81
2023/11/12 05:48:12;;;;;;;6.25;4.80;;;;;;;2.29;80.84;95697.53;5093030;28;20059;-81
2023/11/12 05:50:41;;;;;;;4.88;4.20;;;;;;;2.29;80.27;95705.25;5093294;28;20048;-80
2023/11/12 05:53:09;;;;;;;7.65;4.70;;;;;;;2.28;80.21;95700.28;5092822;28;20519;-82
2023/11/12 05:55:37;;;;;;;5.78;5.10;;;;;;;2.29;80.84;95700.13;5092802;28;20122;-81
2023/11/12 05:58:04;;;;;;;6.40;4.57;;;;;;;2.32;80.62;95710.13;5092128;28;20100;-81
2023/11/12 06:00:32;;;;;;;7.13;4.72;;;;;;;2.35;80.32;95711.56;5092955;28;20466;-80
2023/11/12 06:03:00;;;;;;;6.05;4.85;;;;;;;2.30;80.02;95709.47;5092842;28;20044;-81
2023/11/12 06:05:27;;;;;;;5.25;4.75;;;;;;;2.29;80.20;95712.97;5093084;28;20135;-81
2023/11/12 06:07:56;;;;;;;6.78;5.40;;;;;;;2.28;80.17;95719.09;5088684;28;20041;-81
2023/11/12 06:10:24;;;;;;;7.85;5.43;;;;;;;2.27;80.57;95722.63;5072007;28;20051;-80
2023/11/12 06:12:51;;;;;;;7.18;6.10;;;;;;;2.25;80.29;95717.66;5072225;28;20083;-81
2023/11/12 06:15:25;;;;;;;6.03;4.97;;;;;;;2.26;79.81;95721.81;5072812;28;20136;-81
2023/11/12 06:17:53;;;;;;;6.45;5.45;;;;;;;2.20;79.99;95727.56;5072870;28;20053;-83
2023/11/12 06:20:21;;;;;;;9.25;5.45;;;;;;;2.14;79.69;95737.66;5072827;28;20059;-81
2023/11/12 06:22:48;;;;;;;8.50;6.50;;;;;;;2.15;80.94;95734.13;5072775;28;20521;-81
2023/11/12 06:25:17;;;;;;;7.15;5.95;;;;;;;2.18;81.28;95737.19;5072589;28;20050;-80
2023/11/12 06:27:47;;;;;;;8.77;6.30;;;;;;;2.19;80.83;95732.88;5072609;28;20143;-83
2023/11/12 06:30:15;;;;;;;6.70;5.85;;;;;;;2.16;80.85;95739.13;5073058;28;20044;-82
2023/11/12 06:32:43;;;;;;;6.88;5.43;;;;;;;2.17;81.15;95745.09;5077088;28;20048;-81
2023/11/12 06:35:12;;;;;;;7.25;5.30;;;;;;;2.19;81.00;95748.31;5083219;28;20452;-81
2023/11/12 06:37:40;;;;;;;6.82;5.25;;;;;;;2.20;80.87;95750.72;5083870;28;20079;-82
2023/11/12 06:40:09;;;;;;;6.63;5.13;;;;;;;2.25;81.21;95755.41;5080634;28;20058;-80
2023/11/12 06:42:40;;;;;;;8.35;6.00;;;;;;;2.33;83.18;95759.81;5072823;28;20128;-80
2023/11/12 06:45:09;;;;;;;9.73;6.77;;;;;;;2.40;83.83;95766.78;5072603;28;20426;-80
2023/11/12 06:47:37;;;;;;;7.30;5.82;;;;;;;2.44;83.10;95762.94;5072360;28;20131;-81
2023/11/12 06:50:06;;;;;;;7.15;5.68;;;;;;;2.41;81.85;95772.75;5072424;28;20426;-80
2023/11/12 06:52:34;;;;;;;8.35;6.15;;;;;;;2.41;80.93;95773.56;5072743;28;20048;-83
2023/11/12 06:55:04;;;;;;;8.68;6.40;;;;;;;2.46;80.74;95783.38;5072480;28;20080;-81
2023/11/12 06:57:31;;;;;;;8.02;6.25;;;;;;;2.48;80.67;95779.69;5072262;28;20092;-80
2023/11/12 07:00:01;;;;;;;8.95;6.72;;;;;;;2.55;80.14;95779.09;5072621;28;20430;-81
2023/11/12 07:02:28;;;;;;;9.75;6.88;;;;;;;2.58;80.18;95779.63;5089393;28;20052;-82
2023/11/12 07:04:56;;;;;;;8.80;6.45;;;;;;;2.66;79.90;95781.41;5093396;28;20079;-82
2023/11/12 07:07:24;;;;;;;9.23;7.15;;;;;;;2.72;80.10;95791.09;5093086;28;20072;-81
2023/11/12 07:18:40;;;;;;;8.80;5.82;;;;;;;2.91;77.98;95809.88;5673163;23;20086;-80
2023/11/12 07:35:41;;;;;;;12.37;8.40;;;;;;;3.46;81.16;95824.94;5774735;23;20113;-81
2023/11/12 08:13:36;;;;;;;10.57;7.32;;;;;;;4.31;77.80;95841.03;5241242;23;20073;-80
2023/11/12 08:16:08;;;;;;;7.32;5.80;;;;;;;4.42;76.69;95845.06;5015676;28;20050;-80
2023/11/12 08:18:36;;;;;;;7.47;5.63;;;;;;;4.50;75.86;95850.25;4999687;28;20054;-82
2023/11/12 08:21:10;;;;;;;8.63;6.07;;;;;;;4.56;74.93;95847.97;4961764;28;20044;-81
2023/11/12 08:23:50;;;;;;;7.28;5.45;;;;;;;4.63;74.40;95843.75;4958648;28;20068;-82
2023/11/12 08:26:23;;;;;;;7.40;5.35;;;;;;;4.75;74.71;95842.47;4962441;28;20076;-82
2023/11/12 08:28:56;;;;;;;8.38;6.10;;;;;;;4.82;73.56;95840.84;4977520;28;20058;-82
2023/11/12 08:31:25;;;;;;;9.65;5.75;;;;;;;4.89;73.56;95839.19;4981095;28;20035;-82
2023/11/12 08:33:55;;;;;;;10.55;6.32;;;;;;;4.99;75.22;95833.06;4977312;28;20042;-80
2023/11/12 08:36:23;;;;;;;8.82;6.00;;;;;;;5.12;76.38;95843.69;4970930;28;20102;-80
2023/11/12 08:38:50;;;;;;;7.72;6.20;;;;;;;5.25;76.53;95838.78;4970275;28;20048;-80
2023/11/12 08:41:19;;;;;;;10.43;6.07;;;;;;;5.30;74.86;95836.50;4971944;28;20519;-83
2023/11/12 08:43:47;;;;;;;7.93;6.18;;;;;;;5.37;73.65;95834.84;4955093;29;20048;-83
2023/11/12 08:46:18;;;;;;;6.38;4.97;;;;;;;5.46;72.44;95829.66;4948247;29;20107;-83
2023/11/12 08:48:46;;;;;;;8.43;5.32;;;;;;;5.58;72.83;95833.47;4959033;29;20059;-80
2023/11/12 08:51:16;;;;;;;9.52;5.22;;;;;;;5.72;72.23;95830.16;4974634;29;20059;-80
2023/11/12 08:53:46;;;;;;;15.63;10.83;;;;;;;5.86;72.88;95820.03;4979155;29;20042;-80
2023/11/12 08:56:16;;;;;;;38.45;21.98;;;;;;;5.99;73.41;95835.84;4978115;28;20051;-82
2023/11/12 09:20:36;;;;;;;6.27;4.60;;;;;;;11.21;55.86;95851.16;5222558;23;20062;-81
2023/11/12 09:31:11;;;;;;;5.60;4.53;;;;;;;14.68;49.48;95860.38;5423208;23;20055;-81
2023/11/12 09:36:21;;;;;;;8.45;4.95;;;;;;;15.84;44.63;95865.06;5873091;23;20078;-80
2023/11/12 13:28:24;;;;;;;8.13;5.67;;;;;;;8.12;68.24;95853.63;5534016;23;20295;-81
2023/11/12 13:31:07;;;;;;;8.60;6.07;;;;;;;8.05;68.81;95849.16;4973538;28;20039;-82
2023/11/12 13:33:48;;;;;;;10.50;7.28;;;;;;;8.00;69.53;95845.50;4960718;28;20111;-82
2023/11/12 13:36:22;;;;;;;8.73;6.80;;;;;;;7.95;70.42;95847.84;4960804;28;20058;-82
2023/11/12 13:39:03;;;;;;;11.27;7.60;;;;;;;7.87;69.42;95840.97;4944232;28;20052;-82
2023/11/12 13:41:34;;;;;;;13.90;8.57;;;;;;;7.81;70.02;95836.53;4958039;28;20051;-82
2023/11/12 13:44:09;;;;;;;10.35;7.72;;;;;;;7.74;70.24;95841.63;4960321;28;20047;-83
2023/11/12 13:46:40;;;;;;;10.23;7.93;;;;;;;7.69;71.42;95833.56;4959888;29;20035;-82
2023/11/12 13:49:15;;;;;;;16.83;9.02;;;;;;;7.64;70.72;95834.13;4960031;28;20087;-81
2023/11/12 13:51:47;;;;;;;13.85;7.60;;;;;;;7.56;69.23;95838.59;4960318;28;20048;-82
2023/11/12 13:54:16;;;;;;;12.43;8.50;;;;;;;7.49;70.10;95845.50;4958306;28;20036;-81
2023/11/12 13:56:44;;;;;;;11.93;8.25;;;;;;;7.44;71.44;95859.03;4949409;28;20060;-81
2023/11/12 13:59:16;;;;;;;12.25;9.07;;;;;;;7.41;73.81;95862.81;4959350;28;20071;-81
2023/11/12 14:01:45;;;;;;;14.25;9.32;;;;;;;7.38;72.50;95862.34;4947026;29;20056;-80
2023/11/12 14:04:18;;;;;;;12.45;8.27;;;;;;;7.35;71.80;95863.50;4940930;28;20036;-81
2023/11/12 14:06:50;;;;;;;14.63;9.32;;;;;;;7.35;72.98;95858.31;4956647;29;20059;-82
2023/11/12 14:09:20;;;;;;;12.45;9.23;;;;;;;7.37;72.91;95853.75;4955326;29;20115;-82
2023/11/12 14:12:07;;;;;;;14.85;9.98;;;;;;;7.39;75.31;95858.75;4952042;28;20035;-82
2023/11/12 14:14:40;;;;;;;12.68;9.23;;;;;;;7.34;71.77;95854.09;4939904;29;20042;-83
2023/11/12 14:22:28;;;;;;;17.53;10.80;;;;;;;7.13;71.46;95841.06;1274890;26;20055;-81
2023/11/12 14:25:30;;;;;;;17.73;10.38;;;;;;;7.10;71.06;95839.59;5325830;23;20285;-81
2023/11/12 14:38:49;;;;;;;17.00;11.97;;;;;;;7.04;71.22;95829.16;5211259;23;19906;-80
2023/11/12 14:41:27;;;;;;;14.60;9.70;;;;;;;7.04;71.08;95822.19;5060230;23;20038;-81
2023/11/12 14:43:57;;;;;;;15.98;10.13;;;;;;;7.06;71.93;95824.59;4999301;28;20043;-81
2023/11/12 14:46:33;;;;;;;13.82;9.77;;;;;;;7.06;71.18;95827.19;4988292;28;20040;-81
2023/11/12 14:49:05;;;;;;;16.27;10.48;;;;;;;7.01;71.50;95825.94;4978826;28;20090;-81
2023/11/12 14:51:40;;;;;;;17.08;11.10;;;;;;;6.98;71.53;95826.28;4999222;28;20050;-81
2023/11/12 14:54:19;;;;;;;15.75;11.30;;;;;;;6.97;73.29;95831.66;4976249;28;20075;-82
2023/11/12 14:56:59;;;;;;;15.80;10.98;;;;;;;7.01;74.42;95825.13;5126567;23;20035;-81
2023/11/12 15:02:11;;;;;;;14.07;10.23;;;;;;;6.95;73.95;95829.25;5226732;23;20030;-81
2023/11/12 15:04:56;;;;;;;15.77;10.63;;;;;;;6.95;73.88;95831.84;4999848;28;20033;-82
2023/11/12 15:07:41;;;;;;;15.20;11.73;;;;;;;6.94;74.42;95835.41;4994095;28;20035;-81
2023/11/12 15:10:24;;;;;;;15.77;10.63;;;;;;;6.94;72.85;95835.41;4979553;28;20031;-81
2023/11/12 15:13:04;;;;;;;12.75;9.57;;;;;;;6.96;73.62;95833.44;4979328;28;20065;-81
2023/11/12 15:15:37;;;;;;;13.07;9.38;;;;;;;6.94;73.79;95845.78;5104100;23;20059;-79
2023/11/12 15:18:11;;;;;;;15.40;10.68;;;;;;;6.94;74.05;95850.16;4959152;28;20043;-81
2023/11/12 15:20:46;;;;;;;15.00;10.32;;;;;;;6.94;74.46;95852.75;4959519;28;20059;-81
2023/11/12 15:23:18;;;;;;;13.45;9.90;;;;;;;6.93;75.36;95858.91;4959036;28;20034;-83
2023/11/12 15:25:57;;;;;;;17.25;10.82;;;;;;;6.91;76.65;95864.28;4959030;28;20051;-82
2023/11/12 15:28:30;;;;;;;13.48;9.13;;;;;;;6.91;76.12;95866.88;4949941;28;20035;-82
2023/11/12 15:31:09;;;;;;;11.75;8.35;;;;;;;6.90;75.76;95875.63;4961123;28;20050;-82
2023/11/12 15:33:43;;;;;;;12.18;8.82;;;;;;;6.86;75.08;95870.97;4944087;28;20083;-82
2023/11/12 15:39:05;;;;;;;11.00;7.40;;;;;;;6.79;74.14;95879.44;4960694;28;20087;-81
2023/11/12 15:44:14;;;;;;;12.65;9.18;;;;;;;6.79;74.38;95881.25;5067176;23;20054;-81
2023/11/12 15:46:57;;;;;;;11.15;7.47;;;;;;;6.76;73.01;95884.19;4998602;28;20035;-82
2023/11/12 15:49:29;;;;;;;10.80;7.88;;;;;;;6.72;72.60;95880.34;4970707;28;20068;-79
2023/11/12 15:52:01;;;;;;;11.10;8.65;;;;;;;6.69;73.09;95885.84;4967928;28;20023;-81
2023/11/12 15:54:29;;;;;;;11.88;8.18;;;;;;;6.67;73.94;95885.22;4980011;28;20045;-80
2023/11/12 15:56:58;;;;;;;12.07;8.80;;;;;;;6.69;74.96;95878.09;4972546;28;20046;-81
2023/11/12 15:59:27;;;;;;;10.63;8.00;;;;;;;6.72;76.62;95888.13;4973250;28;20036;-81
2023/11/12 16:01:58;;;;;;;8.35;6.50;;;;;;;6.72;75.44;95885.53;4965568;29;20110;-81
2023/11/12 16:04:26;;;;;;;7.85;6.05;;;;;;;6.69;74.14;95880.66;4973903;29;20055;-81
2023/11/12 16:06:54;;;;;;;8.98;6.72;;;;;;;6.68;73.94;95885.06;4971945;29;20086;-81
2023/11/12 16:09:22;;;;;;;8.05;6.20;;;;;;;6.69;75.22;95894.47;4963312;29;20048;-81
2023/11/12 16:11:51;;;;;;;8.60;6.30;;;;;;;6.71;76.98;95891.69;4971214;29;20047;-80
2023/11/12 16:14:19;;;;;;;6.47;5.38;;;;;;;6.72;77.83;95885.53;4957363;29;20539;-80
2023/11/12 16:16:48;;;;;;;7.43;5.65;;;;;;;6.72;75.66;95893.31;4944420;29;20609;-80
2023/11/12 16:19:16;;;;;;;7.45;4.82;;;;;;;6.66;75.23;95883.63;4948716;29;20544;-81
2023/11/12 16:21:46;;;;;;;6.43;4.72;;;;;;;6.63;74.59;95889.16;4942889;29;20130;-81
2023/11/12 16:24:14;;;;;;;5.47;4.13;;;;;;;6.58;74.78;95887.91;4940045;29;20095;-81
2023/11/12 16:26:41;;;;;;;4.35;3.85;;;;;;;6.54;73.66;95897.00;4942198;29;20051;-81
2023/11/12 16:29:09;;;;;;;4.38;3.58;;;;;;;6.47;73.37;95892.66;4955654;29;20059;-81
2023/11/12 16:31:39;;;;;;;3.38;3.08;;;;;;;6.43;73.79;95897.41;4960744;29;20051;-81
2023/11/12 16:34:08;;;;;;;3.33;2.92;;;;;;;6.39;74.35;95899.53;4964712;28;20050;-81
2023/11/12 16:36:36;;;;;;;4.72;3.30;;;;;;;6.35;74.36;95907.81;4954466;29;20051;-81
2023/11/12 16:39:04;;;;;;;3.75;3.30;;;;;;;6.29;73.95;95903.31;4943016;29;20099;-80
2023/11/12 16:41:32;;;;;;;4.00;2.95;;;;;;;6.24;74.83;95916.00;4938238;29;20143;-80
2023/11/12 16:44:00;;;;;;;4.38;3.72;;;;;;;6.20;74.51;95912.94;4937721;29;20051;-81
2023/11/12 16:46:31;;;;;;;3.45;3.10;;;;;;;6.20;75.99;95918.09;4949745;29;20133;-80
2023/11/12 16:48:59;;;;;;;4.13;2.72;;;;;;;6.22;76.43;95917.94;4951810;28;20085;-79
2023/11/12 16:51:28;;;;;;;4.35;2.80;;;;;;;6.22;75.64;95930.88;4955246;29;20559;-81
2023/11/12 16:53:56;;;;;;;3.53;2.58;;;;;;;6.21;75.46;95937.03;4957617;29;20080;-80
2023/11/12 16:56:23;;;;;;;4.25;2.63;;;;;;;6.22;76.48;95936.06;4947947;29;20420;-80
2023/11/12 16:58:52;;;;;;;6.93;3.17;;;;;;;6.22;77.06;95943.84;4947068;29;20417;-80
2023/11/12 17:01:22;;;;;;;3.30;2.90;;;;;;;6.23;77.33;95943.69;4956079;29;20058;-80
2023/11/12 17:03:50;;;;;;;3.25;2.47;;;;;;;6.23;76.92;95945.44;4956331;29;20158;-80
2023/11/12 17:06:18;;;;;;;4.35;3.22;;;;;;;6.19;77.19;95956.16;4955097;29;20055;-80
2023/11/12 17:08:47;;;;;;;4.90;2.80;;;;;;;6.18;77.50;95946.75;4956430;29;20083;-80
2023/11/12 17:11:15;;;;;;;3.15;2.78;;;;;;;6.16;77.01;95943.53;4956815;29;20077;-79
2023/11/12 17:13:42;;;;;;;1.88;1.75;;;;;;;6.14;77.59;95953.28;4956404;29;20057;-80
2023/11/12 17:16:10;;;;;;;3.15;2.83;;;;;;;6.13;77.89;95949.06;4955622;29;20203;-80
2023/11/12 17:18:37;;;;;;;2.80;2.50;;;;;;;6.11;77.31;95947.63;4955764;29;20047;-80
2023/11/12 17:21:06;;;;;;;3.38;2.65;;;;;;;6.07;76.50;95962.66;4955655;29;20086;-80
2023/11/12 17:23:34;;;;;;;3.28;2.55;;;;;;;6.08;77.39;95955.72;4950936;29;20086;-80
2023/11/12 17:26:04;;;;;;;3.05;2.70;;;;;;;6.10;77.99;95956.34;4945600;29;20192;-80
2023/11/12 17:28:32;;;;;;;2.95;2.20;;;;;;;6.10;78.55;95959.75;4943327;29;20122;-79
2023/11/12 17:30:59;;;;;;;2.63;2.05;;;;;;;6.08;78.12;95964.31;4943365;29;20115;-80
2023/11/12 17:33:32;;;;;;;2.47;2.13;;;;;;;6.05;76.64;95969.81;4955256;29;20114;-80
2023/11/12 17:35:59;;;;;;;3.78;2.45;;;;;;;6.01;77.76;95970.31;4949551;29;20521;-80